sensor_id;sensor_type;location;lat;lon;timestamp;temperature;humidity
67555;HTU21D;54385;53.516;49.456;2023-03-26T00:01:37;11.96;65.19
67555;HTU21D;54385;53.516;49.456;2023-03-26T00:04:05;11.97;65.06
67555;HTU21D;54385;53.516;49.456;2023-03-26T00:06:35;11.90;65.30
67555;HTU21D;54385;53.516;49.456;2023-03-26T00:09:08;11.88;65.30
67555;HTU21D;54385;53.516;49.456;2023-03-26T00:11:35;11.85;65.43
67555;HTU21D;54385;53.516;49.456;2023-03-26T00:14:02;11.85;65.46
67555;HTU21D;54385;53.516;49.456;2023-03-26T00:16:31;11.86;65.46
67555;HTU21D;54385;53.516;49.456;2023-03-26T00:18:59;11.82;65.56
67555;HTU21D;54385;53.516;49.456;2023-03-26T00:21:28;11.84;65.54
67555;HTU21D;54385;53.516;49.456;2023-03-26T00:24:03;11.88;65.37
67555;HTU21D;54385;53.516;49.456;2023-03-26T00:26:33;11.85;65.49
67555;HTU21D;54385;53.516;49.456;2023-03-26T00:29:00;11.85;65.46
67555;HTU21D;54385;53.516;49.456;2023-03-26T00:31:29;11.86;65.37
67555;HTU21D;54385;53.516;49.456;2023-03-26T00:33:56;11.81;65.59
67555;HTU21D;54385;53.516;49.456;2023-03-26T00:36:24;11.76;65.76
67555;HTU21D;54385;53.516;49.456;2023-03-26T00:38:51;11.76;65.72
67555;HTU21D;54385;53.516;49.456;2023-03-26T00:41:20;11.77;65.64
67555;HTU21D;54385;53.516;49.456;2023-03-26T00:43:58;11.74;65.67
67555;HTU21D;54385;53.516;49.456;2023-03-26T00:46:26;11.70;65.79
67555;HTU21D;54385;53.516;49.456;2023-03-26T00:48:53;11.63;66.08
67555;HTU21D;54385;53.516;49.456;2023-03-26T00:51:29;11.57;66.25
67555;HTU21D;54385;53.516;49.456;2023-03-26T00:53:56;11.58;66.24
67555;HTU21D;54385;53.516;49.456;2023-03-26T00:56:23;11.61;66.11
67555;HTU21D;54385;53.516;49.456;2023-03-26T00:58:49;11.60;66.16
67555;HTU21D;54385;53.516;49.456;2023-03-26T01:01:24;11.57;66.27
67555;HTU21D;54385;53.516;49.456;2023-03-26T01:03:58;11.58;66.22
67555;HTU21D;54385;53.516;49.456;2023-03-26T01:06:43;11.55;66.27
67555;HTU21D;54385;53.516;49.456;2023-03-26T01:09:16;11.55;66.42
67555;HTU21D;54385;53.516;49.456;2023-03-26T01:11:44;11.54;66.47
67555;HTU21D;54385;53.516;49.456;2023-03-26T01:14:15;11.49;66.59
67555;HTU21D;54385;53.516;49.456;2023-03-26T01:16:49;11.53;66.53
67555;HTU21D;54385;53.516;49.456;2023-03-26T01:21:51;11.57;66.53
67555;HTU21D;54385;53.516;49.456;2023-03-26T01:24:17;11.57;66.49
67555;HTU21D;54385;53.516;49.456;2023-03-26T01:27:13;11.57;66.58
67555;HTU21D;54385;53.516;49.456;2023-03-26T01:40:41;11.55;66.66
67555;HTU21D;54385;53.516;49.456;2023-03-26T01:45:52;11.52;66.76
67555;HTU21D;54385;53.516;49.456;2023-03-26T01:48:19;11.53;66.72
67555;HTU21D;54385;53.516;49.456;2023-03-26T01:50:46;11.52;66.71
67555;HTU21D;54385;53.516;49.456;2023-03-26T01:53:14;11.54;66.65
67555;HTU21D;54385;53.516;49.456;2023-03-26T01:56:02;11.53;66.59
67555;HTU21D;54385;53.516;49.456;2023-03-26T02:04:05;11.53;66.63
67555;HTU21D;54385;53.516;49.456;2023-03-26T02:06:38;11.59;66.34
67555;HTU21D;54385;53.516;49.456;2023-03-26T02:09:11;11.63;66.22
67555;HTU21D;54385;53.516;49.456;2023-03-26T02:11:40;11.64;66.09
67555;HTU21D;54385;53.516;49.456;2023-03-26T02:14:08;11.71;65.95
67555;HTU21D;54385;53.516;49.456;2023-03-26T02:16:35;11.69;65.96
67555;HTU21D;54385;53.516;49.456;2023-03-26T02:19:02;11.66;66.12
67555;HTU21D;54385;53.516;49.456;2023-03-26T02:21:29;11.67;66.16
67555;HTU21D;54385;53.516;49.456;2023-03-26T02:23:59;11.63;66.18
67555;HTU21D;54385;53.516;49.456;2023-03-26T02:26:31;11.61;66.24
67555;HTU21D;54385;53.516;49.456;2023-03-26T02:28:58;11.57;66.04
67555;HTU21D;54385;53.516;49.456;2023-03-26T02:31:26;11.59;65.69
67555;HTU21D;54385;53.516;49.456;2023-03-26T02:33:55;11.58;65.59
67555;HTU21D;54385;53.516;49.456;2023-03-26T02:36:24;11.59;65.63
67555;HTU21D;54385;53.516;49.456;2023-03-26T02:38:54;11.57;65.49
67555;HTU21D;54385;53.516;49.456;2023-03-26T02:41:23;11.55;65.44
67555;HTU21D;54385;53.516;49.456;2023-03-26T02:43:49;11.48;65.69
67555;HTU21D;54385;53.516;49.456;2023-03-26T02:46:16;11.48;65.69
67555;HTU21D;54385;53.516;49.456;2023-03-26T02:48:42;11.44;65.92
67555;HTU21D;54385;53.516;49.456;2023-03-26T02:51:09;11.43;65.95
67555;HTU21D;54385;53.516;49.456;2023-03-26T02:53:35;11.33;66.20
67555;HTU21D;54385;53.516;49.456;2023-03-26T02:56:02;11.32;66.16
67555;HTU21D;54385;53.516;49.456;2023-03-26T02:58:29;11.30;66.37
67555;HTU21D;54385;53.516;49.456;2023-03-26T03:00:55;11.27;66.50
67555;HTU21D;54385;53.516;49.456;2023-03-26T03:03:23;11.28;66.48
67555;HTU21D;54385;53.516;49.456;2023-03-26T03:05:56;11.32;66.26
67555;HTU21D;54385;53.516;49.456;2023-03-26T03:08:25;11.34;66.03
67555;HTU21D;54385;53.516;49.456;2023-03-26T03:11:20;11.34;65.93
67555;HTU21D;54385;53.516;49.456;2023-03-26T03:13:48;11.31;66.06
67555;HTU21D;54385;53.516;49.456;2023-03-26T03:16:15;11.27;66.24
67555;HTU21D;54385;53.516;49.456;2023-03-26T03:18:42;11.25;66.27
67555;HTU21D;54385;53.516;49.456;2023-03-26T03:21:08;11.27;66.22
67555;HTU21D;54385;53.516;49.456;2023-03-26T03:23:35;11.25;66.20
67555;HTU21D;54385;53.516;49.456;2023-03-26T03:26:01;11.24;66.14
67555;HTU21D;54385;53.516;49.456;2023-03-26T03:28:27;11.18;66.20
67555;HTU21D;54385;53.516;49.456;2023-03-26T03:30:55;11.19;66.17
67555;HTU21D;54385;53.516;49.456;2023-03-26T03:33:22;11.15;66.20
67555;HTU21D;54385;53.516;49.456;2023-03-26T03:35:49;11.07;66.49
67555;HTU21D;54385;53.516;49.456;2023-03-26T03:38:16;11.07;66.57
67555;HTU21D;54385;53.516;49.456;2023-03-26T03:40:42;11.01;66.79
67555;HTU21D;54385;53.516;49.456;2023-03-26T03:43:09;10.96;67.08
67555;HTU21D;54385;53.516;49.456;2023-03-26T03:45:36;10.94;67.32
67555;HTU21D;54385;53.516;49.456;2023-03-26T03:48:03;10.94;67.38
67555;HTU21D;54385;53.516;49.456;2023-03-26T03:50:29;10.93;67.63
67555;HTU21D;54385;53.516;49.456;2023-03-26T03:52:56;10.93;67.72
67555;HTU21D;54385;53.516;49.456;2023-03-26T03:55:24;10.86;67.94
67555;HTU21D;54385;53.516;49.456;2023-03-26T03:57:53;10.81;68.20
67555;HTU21D;54385;53.516;49.456;2023-03-26T04:00:20;10.79;68.32
67555;HTU21D;54385;53.516;49.456;2023-03-26T04:02:47;10.80;68.35
67555;HTU21D;54385;53.516;49.456;2023-03-26T04:05:14;10.87;68.18
67555;HTU21D;54385;53.516;49.456;2023-03-26T04:07:40;10.90;68.13
67555;HTU21D;54385;53.516;49.456;2023-03-26T04:10:08;11.02;67.91
67555;HTU21D;54385;53.516;49.456;2023-03-26T04:12:34;11.14;67.55
67555;HTU21D;54385;53.516;49.456;2023-03-26T04:15:01;11.27;67.07
67555;HTU21D;54385;53.516;49.456;2023-03-26T04:17:27;11.39;66.80
67555;HTU21D;54385;53.516;49.456;2023-03-26T04:19:55;11.47;66.33
67555;HTU21D;54385;53.516;49.456;2023-03-26T04:22:22;11.61;66.07
67555;HTU21D;54385;53.516;49.456;2023-03-26T04:24:49;11.81;65.43
67555;HTU21D;54385;53.516;49.456;2023-03-26T04:27:22;12.02;64.85
67555;HTU21D;54385;53.516;49.456;2023-03-26T04:29:52;12.25;64.18
67555;HTU21D;54385;53.516;49.456;2023-03-26T04:32:25;12.48;63.21
67555;HTU21D;54385;53.516;49.456;2023-03-26T04:34:58;12.72;62.37
67555;HTU21D;54385;53.516;49.456;2023-03-26T04:37:26;12.95;61.44
67555;HTU21D;54385;53.516;49.456;2023-03-26T04:39:57;13.16;60.84
67555;HTU21D;54385;53.516;49.456;2023-03-26T04:42:24;13.26;60.15
67555;HTU21D;54385;53.516;49.456;2023-03-26T04:44:50;13.40;59.78
67555;HTU21D;54385;53.516;49.456;2023-03-26T04:47:17;13.53;59.09
67555;HTU21D;54385;53.516;49.456;2023-03-26T04:49:45;13.73;57.78
67555;HTU21D;54385;53.516;49.456;2023-03-26T04:52:13;13.86;57.36
67555;HTU21D;54385;53.516;49.456;2023-03-26T04:54:42;13.96;56.68
67555;HTU21D;54385;53.516;49.456;2023-03-26T04:57:18;14.07;56.49
67555;HTU21D;54385;53.516;49.456;2023-03-26T04:59:46;14.11;56.05
67555;HTU21D;54385;53.516;49.456;2023-03-26T05:02:12;14.19;55.96
67555;HTU21D;54385;53.516;49.456;2023-03-26T05:04:39;14.18;56.27
67555;HTU21D;54385;53.516;49.456;2023-03-26T05:07:05;14.19;56.07
67555;HTU21D;54385;53.516;49.456;2023-03-26T05:09:32;14.25;55.75
67555;HTU21D;54385;53.516;49.456;2023-03-26T05:11:58;14.35;55.56
67555;HTU21D;54385;53.516;49.456;2023-03-26T05:14:25;14.42;55.60
67555;HTU21D;54385;53.516;49.456;2023-03-26T05:16:51;14.57;55.24
67555;HTU21D;54385;53.516;49.456;2023-03-26T05:19:18;14.62;54.79
67555;HTU21D;54385;53.516;49.456;2023-03-26T05:21:45;14.74;54.66
67555;HTU21D;54385;53.516;49.456;2023-03-26T05:24:11;14.75;54.69
67555;HTU21D;54385;53.516;49.456;2023-03-26T05:26:37;14.78;54.29
67555;HTU21D;54385;53.516;49.456;2023-03-26T05:29:04;14.77;54.50
67555;HTU21D;54385;53.516;49.456;2023-03-26T05:31:30;14.75;54.62
67555;HTU21D;54385;53.516;49.456;2023-03-26T05:33:57;14.71;54.41
67555;HTU21D;54385;53.516;49.456;2023-03-26T05:36:25;14.59;54.57
67555;HTU21D;54385;53.516;49.456;2023-03-26T05:38:53;14.65;54.75
67555;HTU21D;54385;53.516;49.456;2023-03-26T05:41:19;14.68;54.69
67555;HTU21D;54385;53.516;49.456;2023-03-26T05:43:46;14.88;54.33
67555;HTU21D;54385;53.516;49.456;2023-03-26T05:46:14;14.88;54.09
67555;HTU21D;54385;53.516;49.456;2023-03-26T05:48:41;14.87;53.85
67555;HTU21D;54385;53.516;49.456;2023-03-26T05:51:07;14.87;53.78
67555;HTU21D;54385;53.516;49.456;2023-03-26T05:53:34;14.80;53.91
67555;HTU21D;54385;53.516;49.456;2023-03-26T05:56:00;14.87;53.78
67555;HTU21D;54385;53.516;49.456;2023-03-26T05:58:29;14.98;53.56
67555;HTU21D;54385;53.516;49.456;2023-03-26T06:01:01;15.18;53.01
67555;HTU21D;54385;53.516;49.456;2023-03-26T06:03:31;15.30;52.81
67555;HTU21D;54385;53.516;49.456;2023-03-26T06:05:58;15.40;52.43
67555;HTU21D;54385;53.516;49.456;2023-03-26T06:08:24;15.53;52.20
67555;HTU21D;54385;53.516;49.456;2023-03-26T06:11:00;15.62;51.72
67555;HTU21D;54385;53.516;49.456;2023-03-26T06:13:27;15.71;51.29
67555;HTU21D;54385;53.516;49.456;2023-03-26T06:15:53;15.74;51.36
67555;HTU21D;54385;53.516;49.456;2023-03-26T06:18:20;15.83;51.21
67555;HTU21D;54385;53.516;49.456;2023-03-26T06:20:48;15.84;50.83
67555;HTU21D;54385;53.516;49.456;2023-03-26T06:23:15;15.83;51.13
67555;HTU21D;54385;53.516;49.456;2023-03-26T06:25:42;15.90;50.72
67555;HTU21D;54385;53.516;49.456;2023-03-26T06:28:12;15.98;50.50
67555;HTU21D;54385;53.516;49.456;2023-03-26T06:30:39;16.08;49.95
67555;HTU21D;54385;53.516;49.456;2023-03-26T06:33:05;16.13;50.23
67555;HTU21D;54385;53.516;49.456;2023-03-26T06:35:32;16.17;50.28
67555;HTU21D;54385;53.516;49.456;2023-03-26T06:37:59;16.08;49.94
67555;HTU21D;54385;53.516;49.456;2023-03-26T06:40:25;16.27;49.72
67555;HTU21D;54385;53.516;49.456;2023-03-26T06:42:52;16.37;49.79
67555;HTU21D;54385;53.516;49.456;2023-03-26T06:45:22;16.54;48.92
67555;HTU21D;54385;53.516;49.456;2023-03-26T06:47:49;16.61;48.84
67555;HTU21D;54385;53.516;49.456;2023-03-26T06:50:17;16.50;48.70
67555;HTU21D;54385;53.516;49.456;2023-03-26T06:52:45;16.41;49.04
67555;HTU21D;54385;53.516;49.456;2023-03-26T06:55:12;16.31;49.47
67555;HTU21D;54385;53.516;49.456;2023-03-26T06:57:39;16.17;49.72
67555;HTU21D;54385;53.516;49.456;2023-03-26T07:00:06;16.08;50.14
67555;HTU21D;54385;53.516;49.456;2023-03-26T07:02:34;16.10;50.38
67555;HTU21D;54385;53.516;49.456;2023-03-26T07:05:01;16.08;50.37
67555;HTU21D;54385;53.516;49.456;2023-03-26T07:07:28;16.06;50.37
67555;HTU21D;54385;53.516;49.456;2023-03-26T07:09:55;16.08;50.44
67555;HTU21D;54385;53.516;49.456;2023-03-26T07:12:27;16.13;50.17
67555;HTU21D;54385;53.516;49.456;2023-03-26T07:15:02;16.19;50.05
67555;HTU21D;54385;53.516;49.456;2023-03-26T07:17:49;16.35;49.70
67555;HTU21D;54385;53.516;49.456;2023-03-26T07:20:49;16.59;49.18
67555;HTU21D;54385;53.516;49.456;2023-03-26T07:23:39;16.74;48.77
67555;HTU21D;54385;53.516;49.456;2023-03-26T07:32:08;17.21;47.63
67555;HTU21D;54385;53.516;49.456;2023-03-26T07:35:03;17.30;46.87
67555;HTU21D;54385;53.516;49.456;2023-03-26T07:42:42;17.65;45.76
67555;HTU21D;54385;53.516;49.456;2023-03-26T07:45:19;17.67;45.51
67555;HTU21D;54385;53.516;49.456;2023-03-26T07:47:46;17.65;46.05
67555;HTU21D;54385;53.516;49.456;2023-03-26T07:50:17;17.65;45.95
67555;HTU21D;54385;53.516;49.456;2023-03-26T07:52:44;17.70;45.82
67555;HTU21D;54385;53.516;49.456;2023-03-26T07:55:14;17.58;46.14
67555;HTU21D;54385;53.516;49.456;2023-03-26T08:00:18;17.66;46.45
67555;HTU21D;54385;53.516;49.456;2023-03-26T08:05:46;17.91;45.70
67555;HTU21D;54385;53.516;49.456;2023-03-26T08:11:13;18.14;44.94
67555;HTU21D;54385;53.516;49.456;2023-03-26T08:14:07;18.03;45.10
67555;HTU21D;54385;53.516;49.456;2023-03-26T08:16:48;18.07;45.29
67555;HTU21D;54385;53.516;49.456;2023-03-26T08:22:18;18.11;45.19
67555;HTU21D;54385;53.516;49.456;2023-03-26T08:27:50;18.38;44.03
67555;HTU21D;54385;53.516;49.456;2023-03-26T08:30:23;18.54;44.08
67555;HTU21D;54385;53.516;49.456;2023-03-26T08:35:23;18.53;43.76
67555;HTU21D;54385;53.516;49.456;2023-03-26T08:37:50;18.57;43.23
67555;HTU21D;54385;53.516;49.456;2023-03-26T08:46:10;18.66;42.92
67555;HTU21D;54385;53.516;49.456;2023-03-26T08:55:07;18.47;43.03
67555;HTU21D;54385;53.516;49.456;2023-03-26T09:06:40;18.62;43.01
67555;HTU21D;54385;53.516;49.456;2023-03-26T09:40:15;19.16;41.69
67555;HTU21D;54385;53.516;49.456;2023-03-26T09:42:45;18.97;41.36
67555;HTU21D;54385;53.516;49.456;2023-03-26T09:48:09;19.01;41.16
67555;HTU21D;54385;53.516;49.456;2023-03-26T09:50:49;19.23;40.43
67555;HTU21D;54385;53.516;49.456;2023-03-26T09:53:45;19.38;39.65
67555;HTU21D;54385;53.516;49.456;2023-03-26T09:59:05;19.85;39.27
67555;HTU21D;54385;53.516;49.456;2023-03-26T10:01:58;19.95;38.64
67555;HTU21D;54385;53.516;49.456;2023-03-26T10:13:29;20.62;38.71
67555;HTU21D;54385;53.516;49.456;2023-03-26T10:16:25;20.65;38.38
67555;HTU21D;54385;53.516;49.456;2023-03-26T10:21:46;20.88;37.40
67555;HTU21D;54385;53.516;49.456;2023-03-26T10:24:21;20.93;37.69
67555;HTU21D;54385;53.516;49.456;2023-03-26T10:27:03;20.91;37.62
67555;HTU21D;54385;53.516;49.456;2023-03-26T10:37:48;21.47;37.04
67555;HTU21D;54385;53.516;49.456;2023-03-26T10:40:42;21.53;36.36
67555;HTU21D;54385;53.516;49.456;2023-03-26T10:52:12;21.57;34.88
67555;HTU21D;54385;53.516;49.456;2023-03-26T10:55:17;21.77;34.24
67555;HTU21D;54385;53.516;49.456;2023-03-26T10:57:55;21.85;34.57
67555;HTU21D;54385;53.516;49.456;2023-03-26T11:00:28;21.79;34.74
67555;HTU21D;54385;53.516;49.456;2023-03-26T11:12:51;21.99;33.95
67555;HTU21D;54385;53.516;49.456;2023-03-26T11:15:35;21.76;34.65
67555;HTU21D;54385;53.516;49.456;2023-03-26T11:23:42;21.85;35.31
67555;HTU21D;54385;53.516;49.456;2023-03-26T11:26:21;21.97;34.68
67555;HTU21D;54385;53.516;49.456;2023-03-26T11:32:01;21.80;34.70
67555;HTU21D;54385;53.516;49.456;2023-03-26T11:34:34;21.64;35.11
67555;HTU21D;54385;53.516;49.456;2023-03-26T11:37:10;21.65;35.31
67555;HTU21D;54385;53.516;49.456;2023-03-26T11:39:47;21.90;34.89
67555;HTU21D;54385;53.516;49.456;2023-03-26T11:42:16;22.19;34.31
67555;HTU21D;54385;53.516;49.456;2023-03-26T11:44:57;22.25;34.36
67555;HTU21D;54385;53.516;49.456;2023-03-26T11:47:39;22.54;34.01
67555;HTU21D;54385;53.516;49.456;2023-03-26T11:50:15;22.35;34.18
67555;HTU21D;54385;53.516;49.456;2023-03-26T11:52:43;22.23;34.50
67555;HTU21D;54385;53.516;49.456;2023-03-26T11:55:12;22.19;34.69
67555;HTU21D;54385;53.516;49.456;2023-03-26T11:57:42;22.46;34.28
67555;HTU21D;54385;53.516;49.456;2023-03-26T12:00:17;22.68;33.43
67555;HTU21D;54385;53.516;49.456;2023-03-26T12:02:47;23.16;33.26
67555;HTU21D;54385;53.516;49.456;2023-03-26T12:05:19;23.67;32.09
67555;HTU21D;54385;53.516;49.456;2023-03-26T12:07:55;23.62;31.89
67555;HTU21D;54385;53.516;49.456;2023-03-26T12:12:56;23.17;32.30
67555;HTU21D;54385;53.516;49.456;2023-03-26T12:15:24;22.84;32.79
67555;HTU21D;54385;53.516;49.456;2023-03-26T12:17:54;22.97;32.41
67555;HTU21D;54385;53.516;49.456;2023-03-26T12:20:34;22.58;33.34
67555;HTU21D;54385;53.516;49.456;2023-03-26T12:23:04;22.94;32.86
67555;HTU21D;54385;53.516;49.456;2023-03-26T12:25:33;23.09;32.55
67555;HTU21D;54385;53.516;49.456;2023-03-26T12:28:15;22.90;32.95
67555;HTU21D;54385;53.516;49.456;2023-03-26T12:31:03;23.60;31.84
67555;HTU21D;54385;53.516;49.456;2023-03-26T12:33:33;23.76;31.64
67555;HTU21D;54385;53.516;49.456;2023-03-26T12:36:18;23.31;32.32
67555;HTU21D;54385;53.516;49.456;2023-03-26T12:38:46;22.81;33.65
67555;HTU21D;54385;53.516;49.456;2023-03-26T12:41:15;22.42;34.32
67555;HTU21D;54385;53.516;49.456;2023-03-26T12:43:50;22.21;34.76
67555;HTU21D;54385;53.516;49.456;2023-03-26T12:46:29;21.93;35.37
67555;HTU21D;54385;53.516;49.456;2023-03-26T12:49:02;21.62;35.76
67555;HTU21D;54385;53.516;49.456;2023-03-26T12:51:41;21.48;36.20
67555;HTU21D;54385;53.516;49.456;2023-03-26T12:54:13;21.49;36.11
67555;HTU21D;54385;53.516;49.456;2023-03-26T12:56:50;21.20;36.63
67555;HTU21D;54385;53.516;49.456;2023-03-26T13:07:56;20.85;37.48
67555;HTU21D;54385;53.516;49.456;2023-03-26T13:11:02;20.85;37.27
67555;HTU21D;54385;53.516;49.456;2023-03-26T13:19:17;20.57;37.43
67555;HTU21D;54385;53.516;49.456;2023-03-26T13:27:27;20.39;37.93
67555;HTU21D;54385;53.516;49.456;2023-03-26T13:35:07;19.99;38.40
67555;HTU21D;54385;53.516;49.456;2023-03-26T13:48:39;19.14;40.17
67555;HTU21D;54385;53.516;49.456;2023-03-26T13:51:20;19.01;40.88
67555;HTU21D;54385;53.516;49.456;2023-03-26T13:53:55;18.94;40.90
67555;HTU21D;54385;53.516;49.456;2023-03-26T13:56:30;18.91;41.28
67555;HTU21D;54385;53.516;49.456;2023-03-26T13:59:06;18.80;41.53
67555;HTU21D;54385;53.516;49.456;2023-03-26T14:01:40;18.76;41.54
67555;HTU21D;54385;53.516;49.456;2023-03-26T14:07:24;18.53;42.55
67555;HTU21D;54385;53.516;49.456;2023-03-26T14:10:10;18.41;42.67
67555;HTU21D;54385;53.516;49.456;2023-03-26T14:12:43;18.40;42.93
67555;HTU21D;54385;53.516;49.456;2023-03-26T14:15:40;18.32;43.42
67555;HTU21D;54385;53.516;49.456;2023-03-26T14:24:15;18.07;44.05
67555;HTU21D;54385;53.516;49.456;2023-03-26T14:27:23;17.94;44.42
67555;HTU21D;54385;53.516;49.456;2023-03-26T14:33:01;17.81;45.08
67555;HTU21D;54385;53.516;49.456;2023-03-26T14:38:24;17.62;45.96
67555;HTU21D;54385;53.516;49.456;2023-03-26T14:47:06;17.31;46.79
67555;HTU21D;54385;53.516;49.456;2023-03-26T14:52:51;17.01;47.79
67555;HTU21D;54385;53.516;49.456;2023-03-26T14:56:01;16.91;48.10
67555;HTU21D;54385;53.516;49.456;2023-03-26T14:59:09;16.82;48.41
67555;HTU21D;54385;53.516;49.456;2023-03-26T15:13:42;16.31;50.24
67555;HTU21D;54385;53.516;49.456;2023-03-26T15:43:15;15.63;52.63
67555;HTU21D;54385;53.516;49.456;2023-03-26T15:45:51;15.54;52.85
67555;HTU21D;54385;53.516;49.456;2023-03-26T15:48:53;15.42;53.43
67555;HTU21D;54385;53.516;49.456;2023-03-26T15:57:04;15.12;54.07
67555;HTU21D;54385;53.516;49.456;2023-03-26T15:59:53;15.00;54.64
67555;HTU21D;54385;53.516;49.456;2023-03-26T16:11:02;14.73;55.34
67555;HTU21D;54385;53.516;49.456;2023-03-26T16:18:42;14.66;55.57
67555;HTU21D;54385;53.516;49.456;2023-03-26T16:29:24;14.49;55.96
67555;HTU21D;54385;53.516;49.456;2023-03-26T16:35:21;14.42;56.32
67555;HTU21D;54385;53.516;49.456;2023-03-26T16:38:29;14.38;56.29
67555;HTU21D;54385;53.516;49.456;2023-03-26T16:41:06;14.38;56.49
67555;HTU21D;54385;53.516;49.456;2023-03-26T16:49:09;14.36;56.30
67555;HTU21D;54385;53.516;49.456;2023-03-26T16:51:59;14.32;56.54
67555;HTU21D;54385;53.516;49.456;2023-03-26T16:57:23;14.33;56.49
67555;HTU21D;54385;53.516;49.456;2023-03-26T17:02:31;14.22;56.46
67555;HTU21D;54385;53.516;49.456;2023-03-26T17:05:32;14.14;56.84
67555;HTU21D;54385;53.516;49.456;2023-03-26T17:08:11;14.07;56.83
67555;HTU21D;54385;53.516;49.456;2023-03-26T17:10:58;13.94;57.32
67555;HTU21D;54385;53.516;49.456;2023-03-26T17:16:27;13.82;57.64
67555;HTU21D;54385;53.516;49.456;2023-03-26T17:28:18;13.66;58.64
67555;HTU21D;54385;53.516;49.456;2023-03-26T17:31:03;13.65;58.77
67555;HTU21D;54385;53.516;49.456;2023-03-26T17:33:36;13.62;58.72
67555;HTU21D;54385;53.516;49.456;2023-03-26T17:41:07;13.50;58.96
67555;HTU21D;54385;53.516;49.456;2023-03-26T17:49:03;13.53;59.28
67555;HTU21D;54385;53.516;49.456;2023-03-26T17:51:54;13.49;59.84
67555;HTU21D;54385;53.516;49.456;2023-03-26T17:54:28;13.45;60.10
67555;HTU21D;54385;53.516;49.456;2023-03-26T17:57:02;13.46;60.24
67555;HTU21D;54385;53.516;49.456;2023-03-26T17:59:31;13.47;60.35
67555;HTU21D;54385;53.516;49.456;2023-03-26T18:01:59;13.48;60.48
67555;HTU21D;54385;53.516;49.456;2023-03-26T18:04:38;13.45;60.86
67555;HTU21D;54385;53.516;49.456;2023-03-26T18:16:15;13.44;61.31
67555;HTU21D;54385;53.516;49.456;2023-03-26T18:18:47;13.38;61.11
67555;HTU21D;54385;53.516;49.456;2023-03-26T18:21:37;13.43;61.18
67555;HTU21D;54385;53.516;49.456;2023-03-26T18:24:06;13.46;60.97
67555;HTU21D;54385;53.516;49.456;2023-03-26T18:26:40;13.46;60.95
67555;HTU21D;54385;53.516;49.456;2023-03-26T18:29:21;13.51;60.79
67555;HTU21D;54385;53.516;49.456;2023-03-26T18:31:55;13.50;60.80
67555;HTU21D;54385;53.516;49.456;2023-03-26T18:34:24;13.51;60.80
67555;HTU21D;54385;53.516;49.456;2023-03-26T18:39:37;13.54;60.73
67555;HTU21D;54385;53.516;49.456;2023-03-26T18:42:05;13.49;60.90
67555;HTU21D;54385;53.516;49.456;2023-03-26T18:44:34;13.49;60.86
67555;HTU21D;54385;53.516;49.456;2023-03-26T18:47:05;13.47;60.89
67555;HTU21D;54385;53.516;49.456;2023-03-26T18:49:36;13.53;60.80
67555;HTU21D;54385;53.516;49.456;2023-03-26T18:52:03;13.45;60.96
67555;HTU21D;54385;53.516;49.456;2023-03-26T18:54:33;13.41;61.08
67555;HTU21D;54385;53.516;49.456;2023-03-26T18:57:07;13.39;61.12
67555;HTU21D;54385;53.516;49.456;2023-03-26T18:59:42;13.37;61.02
67555;HTU21D;54385;53.516;49.456;2023-03-26T19:02:11;13.35;61.06
67555;HTU21D;54385;53.516;49.456;2023-03-26T19:04:41;13.33;61.12
67555;HTU21D;54385;53.516;49.456;2023-03-26T19:07:12;13.34;61.06
67555;HTU21D;54385;53.516;49.456;2023-03-26T19:09:40;13.31;61.11
67555;HTU21D;54385;53.516;49.456;2023-03-26T19:17:50;13.19;61.66
67555;HTU21D;54385;53.516;49.456;2023-03-26T19:20:23;13.17;61.56
67555;HTU21D;54385;53.516;49.456;2023-03-26T19:22:51;13.14;61.67
67555;HTU21D;54385;53.516;49.456;2023-03-26T19:25:24;13.04;61.93
67555;HTU21D;54385;53.516;49.456;2023-03-26T19:27:51;13.05;61.88
67555;HTU21D;54385;53.516;49.456;2023-03-26T19:30:30;13.08;61.98
67555;HTU21D;54385;53.516;49.456;2023-03-26T19:33:09;13.08;61.89
67555;HTU21D;54385;53.516;49.456;2023-03-26T19:35:38;13.08;61.76
67555;HTU21D;54385;53.516;49.456;2023-03-26T19:38:20;13.14;61.71
67555;HTU21D;54385;53.516;49.456;2023-03-26T19:40:49;13.09;61.67
67555;HTU21D;54385;53.516;49.456;2023-03-26T19:43:17;13.08;61.57
67555;HTU21D;54385;53.516;49.456;2023-03-26T19:45:44;13.10;61.65
67555;HTU21D;54385;53.516;49.456;2023-03-26T19:48:16;13.09;61.70
67555;HTU21D;54385;53.516;49.456;2023-03-26T19:50:53;13.08;61.73
67555;HTU21D;54385;53.516;49.456;2023-03-26T19:53:33;13.03;61.83
67555;HTU21D;54385;53.516;49.456;2023-03-26T19:56:11;12.96;62.12
67555;HTU21D;54385;53.516;49.456;2023-03-26T19:58:41;12.93;62.05
67555;HTU21D;54385;53.516;49.456;2023-03-26T20:01:16;12.94;62.16
67555;HTU21D;54385;53.516;49.456;2023-03-26T20:03:49;12.88;62.21
67555;HTU21D;54385;53.516;49.456;2023-03-26T20:06:18;12.86;62.28
67555;HTU21D;54385;53.516;49.456;2023-03-26T20:08:46;12.82;62.34
67555;HTU21D;54385;53.516;49.456;2023-03-26T20:11:20;12.82;62.43
67555;HTU21D;54385;53.516;49.456;2023-03-26T20:13:48;12.79;62.44
67555;HTU21D;54385;53.516;49.456;2023-03-26T20:16:26;12.80;62.42
67555;HTU21D;54385;53.516;49.456;2023-03-26T20:18:54;12.75;62.50
67555;HTU21D;54385;53.516;49.456;2023-03-26T20:21:28;12.67;62.74
67555;HTU21D;54385;53.516;49.456;2023-03-26T20:23:55;12.63;62.74
67555;HTU21D;54385;53.516;49.456;2023-03-26T20:26:22;12.60;62.89
67555;HTU21D;54385;53.516;49.456;2023-03-26T20:28:49;12.57;63.06
67555;HTU21D;54385;53.516;49.456;2023-03-26T20:31:19;12.51;63.12
67555;HTU21D;54385;53.516;49.456;2023-03-26T20:33:48;12.50;63.19
67555;HTU21D;54385;53.516;49.456;2023-03-26T20:36:16;12.50;63.21
67555;HTU21D;54385;53.516;49.456;2023-03-26T20:38:44;12.48;63.25
67555;HTU21D;54385;53.516;49.456;2023-03-26T20:41:13;12.50;63.18
67555;HTU21D;54385;53.516;49.456;2023-03-26T20:43:40;12.45;63.28
67555;HTU21D;54385;53.516;49.456;2023-03-26T20:46:17;12.44;63.44
67555;HTU21D;54385;53.516;49.456;2023-03-26T20:48:47;12.40;63.39
67555;HTU21D;54385;53.516;49.456;2023-03-26T20:51:14;12.34;63.51
67555;HTU21D;54385;53.516;49.456;2023-03-26T20:53:41;12.28;63.64
67555;HTU21D;54385;53.516;49.456;2023-03-26T20:56:14;12.30;63.57
67555;HTU21D;54385;53.516;49.456;2023-03-26T20:58:43;12.25;63.63
67555;HTU21D;54385;53.516;49.456;2023-03-26T21:01:13;12.26;63.53
67555;HTU21D;54385;53.516;49.456;2023-03-26T21:03:42;12.23;63.56
67555;HTU21D;54385;53.516;49.456;2023-03-26T21:06:12;12.22;63.52
67555;HTU21D;54385;53.516;49.456;2023-03-26T21:08:40;12.21;63.47
67555;HTU21D;54385;53.516;49.456;2023-03-26T21:11:19;12.21;63.44
67555;HTU21D;54385;53.516;49.456;2023-03-26T21:14:00;12.16;63.56